sensor_id;sensor_type;location;lat;lon;timestamp;pressure;altitude;pressure_sealevel;temperature;humidity
26087;BME280;13851;43.434;28.338;2023-02-27T00:01:45;99587.53;;;13.46;100.00
26087;BME280;13851;43.434;28.338;2023-02-27T00:04:11;99555.47;;;13.12;100.00
26087;BME280;13851;43.434;28.338;2023-02-27T00:06:37;99610.22;;;13.41;100.00
26087;BME280;13851;43.434;28.338;2023-02-27T00:09:03;99584.44;;;13.14;100.00
26087;BME280;13851;43.434;28.338;2023-02-27T00:11:28;99582.88;;;12.92;100.00
26087;BME280;13851;43.434;28.338;2023-02-27T00:13:54;99267.16;;;11.12;100.00
26087;BME280;13851;43.434;28.338;2023-02-27T00:16:19;99584.66;;;13.06;100.00
26087;BME280;13851;43.434;28.338;2023-02-27T00:18:45;99639.03;;;13.11;100.00
26087;BME280;13851;43.434;28.338;2023-02-27T00:21:10;99632.00;;;13.01;100.00
26087;BME280;13851;43.434;28.338;2023-02-27T00:23:36;99639.44;;;13.08;100.00
26087;BME280;13851;43.434;28.338;2023-02-27T00:26:02;99316.06;;;11.36;100.00
26087;BME280;13851;43.434;28.338;2023-02-27T00:28:28;99600.47;;;12.97;100.00
26087;BME280;13851;43.434;28.338;2023-02-27T00:30:53;99569.81;;;12.59;100.00
26087;BME280;13851;43.434;28.338;2023-02-27T00:33:19;99589.31;;;13.06;100.00
26087;BME280;13851;43.434;28.338;2023-02-27T00:35:44;99605.41;;;13.15;100.00
26087;BME280;13851;43.434;28.338;2023-02-27T00:38:10;99575.75;;;13.04;100.00
26087;BME280;13851;43.434;28.338;2023-02-27T00:40:35;99607.53;;;13.20;100.00
26087;BME280;13851;43.434;28.338;2023-02-27T00:43:02;99557.31;;;12.91;100.00
26087;BME280;13851;43.434;28.338;2023-02-27T00:45:27;99574.03;;;13.03;100.00
26087;BME280;13851;43.434;28.338;2023-02-27T00:47:53;99584.19;;;13.02;100.00
26087;BME280;13851;43.434;28.338;2023-02-27T00:50:19;99633.91;;;13.42;100.00
26087;BME280;13851;43.434;28.338;2023-02-27T00:52:44;99383.00;;;12.18;100.00
26087;BME280;13851;43.434;28.338;2023-02-27T00:55:10;99599.44;;;13.46;100.00
26087;BME280;13851;43.434;28.338;2023-02-27T00:57:36;99540.03;;;13.17;100.00
26087;BME280;13851;43.434;28.338;2023-02-27T01:00:04;99526.25;;;13.04;100.00
26087;BME280;13851;43.434;28.338;2023-02-27T01:02:30;99591.09;;;13.26;100.00
26087;BME280;13851;43.434;28.338;2023-02-27T01:04:56;99596.69;;;13.53;100.00
26087;BME280;13851;43.434;28.338;2023-02-27T01:07:21;99603.88;;;13.54;100.00
26087;BME280;13851;43.434;28.338;2023-02-27T01:09:47;99613.66;;;13.57;100.00
26087;BME280;13851;43.434;28.338;2023-02-27T01:12:12;99643.84;;;13.43;100.00
26087;BME280;13851;43.434;28.338;2023-02-27T01:14:38;99592.81;;;13.34;100.00
26087;BME280;13851;43.434;28.338;2023-02-27T01:17:04;99571.66;;;13.35;100.00
26087;BME280;13851;43.434;28.338;2023-02-27T01:19:29;99589.91;;;13.49;100.00
26087;BME280;13851;43.434;28.338;2023-02-27T01:21:55;99639.88;;;13.52;100.00
26087;BME280;13851;43.434;28.338;2023-02-27T01:24:20;99623.13;;;13.47;100.00
26087;BME280;13851;43.434;28.338;2023-02-27T01:26:46;99575.34;;;13.14;100.00
26087;BME280;13851;43.434;28.338;2023-02-27T01:29:13;99273.53;;;11.19;100.00
26087;BME280;13851;43.434;28.338;2023-02-27T01:31:39;99598.59;;;13.05;100.00
26087;BME280;13851;43.434;28.338;2023-02-27T01:34:05;99560.56;;;12.67;100.00
26087;BME280;13851;43.434;28.338;2023-02-27T01:36:30;99632.28;;;12.79;100.00
26087;BME280;13851;43.434;28.338;2023-02-27T01:38:56;99567.63;;;12.83;100.00
26087;BME280;13851;43.434;28.338;2023-02-27T01:41:21;99589.69;;;12.96;100.00
26087;BME280;13851;43.434;28.338;2023-02-27T01:44:00;99640.72;;;13.05;100.00
26087;BME280;13851;43.434;28.338;2023-02-27T01:46:27;99559.84;;;12.99;100.00
26087;BME280;13851;43.434;28.338;2023-02-27T01:48:56;99575.84;;;13.24;100.00
26087;BME280;13851;43.434;28.338;2023-02-27T01:51:25;99593.25;;;13.31;100.00
26087;BME280;13851;43.434;28.338;2023-02-27T01:53:52;99533.00;;;13.01;100.00
26087;BME280;13851;43.434;28.338;2023-02-27T01:56:27;99540.22;;;13.02;100.00
26087;BME280;13851;43.434;28.338;2023-02-27T01:58:58;99598.09;;;12.94;100.00
26087;BME280;13851;43.434;28.338;2023-02-27T02:01:26;99294.22;;;10.93;100.00
26087;BME280;13851;43.434;28.338;2023-02-27T02:06:40;99664.63;;;12.48;100.00
26087;BME280;13851;43.434;28.338;2023-02-27T02:09:08;99584.50;;;12.17;100.00
26087;BME280;13851;43.434;28.338;2023-02-27T02:11:36;99607.66;;;12.08;100.00
26087;BME280;13851;43.434;28.338;2023-02-27T02:14:02;99624.38;;;12.34;100.00
26087;BME280;13851;43.434;28.338;2023-02-27T02:21:56;99620.59;;;12.35;100.00
26087;BME280;13851;43.434;28.338;2023-02-27T02:24:45;99582.03;;;12.22;100.00
26087;BME280;13851;43.434;28.338;2023-02-27T02:27:30;99606.56;;;12.58;100.00
26087;BME280;13851;43.434;28.338;2023-02-27T02:30:27;99557.69;;;12.47;100.00
26087;BME280;13851;43.434;28.338;2023-02-27T02:35:55;99625.28;;;13.11;100.00
26087;BME280;13851;43.434;28.338;2023-02-27T02:41:21;99624.59;;;13.43;100.00
26087;BME280;13851;43.434;28.338;2023-02-27T02:50:00;99623.41;;;13.79;100.00
26087;BME280;13851;43.434;28.338;2023-02-27T02:52:50;99637.81;;;13.74;100.00
26087;BME280;13851;43.434;28.338;2023-02-27T02:55:22;99633.97;;;13.69;100.00
26087;BME280;13851;43.434;28.338;2023-02-27T02:57:55;99622.34;;;13.67;100.00
26087;BME280;13851;43.434;28.338;2023-02-27T03:00:30;99359.22;;;11.90;100.00
26087;BME280;13851;43.434;28.338;2023-02-27T03:06:01;99619.56;;;13.60;100.00
26087;BME280;13851;43.434;28.338;2023-02-27T03:08:31;99604.25;;;13.38;100.00
26087;BME280;13851;43.434;28.338;2023-02-27T03:10:59;99615.94;;;13.53;100.00
26087;BME280;13851;43.434;28.338;2023-02-27T03:16:24;99291.56;;;11.35;100.00
26087;BME280;13851;43.434;28.338;2023-02-27T03:18:57;99629.63;;;13.26;100.00
26087;BME280;13851;43.434;28.338;2023-02-27T03:21:30;99300.19;;;11.32;100.00
26087;BME280;13851;43.434;28.338;2023-02-27T03:24:01;99580.47;;;12.75;100.00
26087;BME280;13851;43.434;28.338;2023-02-27T03:26:32;99368.91;;;11.52;100.00
26087;BME280;13851;43.434;28.338;2023-02-27T03:29:03;99645.75;;;13.01;100.00
26087;BME280;13851;43.434;28.338;2023-02-27T03:31:37;99616.69;;;12.51;100.00
26087;BME280;13851;43.434;28.338;2023-02-27T03:34:15;99613.47;;;12.47;100.00
26087;BME280;13851;43.434;28.338;2023-02-27T03:36:45;99662.25;;;12.39;100.00
26087;BME280;13851;43.434;28.338;2023-02-27T03:44:31;99657.94;;;12.58;100.00
26087;BME280;13851;43.434;28.338;2023-02-27T03:46:59;99651.63;;;12.64;100.00
26087;BME280;13851;43.434;28.338;2023-02-27T03:49:25;99626.91;;;12.64;100.00
26087;BME280;13851;43.434;28.338;2023-02-27T03:51:51;99574.97;;;12.13;100.00
26087;BME280;13851;43.434;28.338;2023-02-27T03:54:33;99647.13;;;12.49;100.00
26087;BME280;13851;43.434;28.338;2023-02-27T03:57:04;99474.69;;;11.39;100.00
26087;BME280;13851;43.434;28.338;2023-02-27T03:59:31;99696.00;;;12.11;100.00
26087;BME280;13851;43.434;28.338;2023-02-27T04:01:58;99348.16;;;10.14;100.00
26087;BME280;13851;43.434;28.338;2023-02-27T04:04:25;99646.19;;;11.93;100.00
26087;BME280;13851;43.434;28.338;2023-02-27T04:07:11;99655.72;;;11.97;100.00
26087;BME280;13851;43.434;28.338;2023-02-27T04:10:13;99674.09;;;11.96;100.00
26087;BME280;13851;43.434;28.338;2023-02-27T04:22:59;99583.78;;;12.30;100.00
26087;BME280;13851;43.434;28.338;2023-02-27T04:25:50;99638.13;;;12.69;100.00
26087;BME280;13851;43.434;28.338;2023-02-27T04:28:26;99683.75;;;12.63;100.00
26087;BME280;13851;43.434;28.338;2023-02-27T04:36:35;99685.22;;;11.88;100.00
26087;BME280;13851;43.434;28.338;2023-02-27T04:39:08;99684.63;;;11.57;100.00
26087;BME280;13851;43.434;28.338;2023-02-27T04:41:43;99646.81;;;11.37;100.00
26087;BME280;13851;43.434;28.338;2023-02-27T04:44:12;99674.34;;;11.29;100.00
26087;BME280;13851;43.434;28.338;2023-02-27T04:46:41;99593.69;;;10.87;100.00
26087;BME280;13851;43.434;28.338;2023-02-27T04:49:15;99649.03;;;10.68;100.00
26087;BME280;13851;43.434;28.338;2023-02-27T04:52:13;99675.50;;;11.05;100.00
26087;BME280;13851;43.434;28.338;2023-02-27T04:54:50;99647.34;;;10.67;100.00
26087;BME280;13851;43.434;28.338;2023-02-27T04:57:28;99695.16;;;10.79;100.00
26087;BME280;13851;43.434;28.338;2023-02-27T04:59:58;99678.06;;;10.77;100.00
26087;BME280;13851;43.434;28.338;2023-02-27T05:02:34;99729.19;;;10.70;100.00
26087;BME280;13851;43.434;28.338;2023-02-27T05:05:08;99705.44;;;10.62;100.00
26087;BME280;13851;43.434;28.338;2023-02-27T05:07:51;99492.84;;;9.27;100.00
26087;BME280;13851;43.434;28.338;2023-02-27T05:10:31;99714.84;;;10.22;100.00
26087;BME280;13851;43.434;28.338;2023-02-27T05:15:30;99747.97;;;10.35;100.00
26087;BME280;13851;43.434;28.338;2023-02-27T05:18:18;99665.22;;;10.02;100.00
26087;BME280;13851;43.434;28.338;2023-02-27T05:26:45;99729.56;;;10.21;100.00
26087;BME280;13851;43.434;28.338;2023-02-27T05:29:26;99448.84;;;8.45;100.00
26087;BME280;13851;43.434;28.338;2023-02-27T05:31:56;99775.44;;;10.19;100.00
26087;BME280;13851;43.434;28.338;2023-02-27T05:34:42;99731.44;;;10.21;100.00
26087;BME280;13851;43.434;28.338;2023-02-27T05:37:44;99730.84;;;10.33;100.00
26087;BME280;13851;43.434;28.338;2023-02-27T05:40:02;99506.50;;;9.04;100.00
26087;BME280;13851;43.434;28.338;2023-02-27T05:42:57;99727.75;;;10.36;100.00
26087;BME280;13851;43.434;28.338;2023-02-27T05:45:28;99674.47;;;10.01;100.00
26087;BME280;13851;43.434;28.338;2023-02-27T05:48:06;99736.28;;;10.41;100.00
26087;BME280;13851;43.434;28.338;2023-02-27T05:50:35;99461.56;;;8.83;100.00
26087;BME280;13851;43.434;28.338;2023-02-27T05:53:05;99753.03;;;10.61;100.00
26087;BME280;13851;43.434;28.338;2023-02-27T05:58:15;99736.22;;;10.50;100.00
26087;BME280;13851;43.434;28.338;2023-02-27T06:00:48;99705.59;;;10.23;100.00
26087;BME280;13851;43.434;28.338;2023-02-27T06:03:16;99722.63;;;10.33;100.00
26087;BME280;13851;43.434;28.338;2023-02-27T06:05:42;99819.38;;;10.49;100.00
26087;BME280;13851;43.434;28.338;2023-02-27T06:08:09;99445.41;;;8.74;100.00
26087;BME280;13851;43.434;28.338;2023-02-27T06:10:35;99680.44;;;10.28;100.00
26087;BME280;13851;43.434;28.338;2023-02-27T06:13:01;99735.94;;;10.59;100.00
26087;BME280;13851;43.434;28.338;2023-02-27T06:15:26;99796.81;;;10.84;100.00
26087;BME280;13851;43.434;28.338;2023-02-27T06:17:53;99797.97;;;10.90;100.00
26087;BME280;13851;43.434;28.338;2023-02-27T06:20:18;99675.66;;;10.22;100.00
26087;BME280;13851;43.434;28.338;2023-02-27T06:22:44;99467.22;;;9.28;100.00
26087;BME280;13851;43.434;28.338;2023-02-27T06:25:10;99749.22;;;11.15;100.00
26087;BME280;13851;43.434;28.338;2023-02-27T06:27:36;99686.50;;;10.90;100.00
26087;BME280;13851;43.434;28.338;2023-02-27T06:30:01;99776.84;;;11.43;100.00
26087;BME280;13851;43.434;28.338;2023-02-27T06:32:27;99825.84;;;11.31;100.00
26087;BME280;13851;43.434;28.338;2023-02-27T06:34:52;99789.53;;;11.29;100.00
26087;BME280;13851;43.434;28.338;2023-02-27T06:37:18;99799.56;;;11.52;100.00
26087;BME280;13851;43.434;28.338;2023-02-27T06:39:46;99815.53;;;11.63;100.00
26087;BME280;13851;43.434;28.338;2023-02-27T06:42:12;99757.75;;;11.35;100.00
26087;BME280;13851;43.434;28.338;2023-02-27T06:44:38;99789.53;;;11.29;100.00
26087;BME280;13851;43.434;28.338;2023-02-27T06:47:03;99809.25;;;11.10;100.00
26087;BME280;13851;43.434;28.338;2023-02-27T06:49:30;99833.78;;;11.11;100.00
26087;BME280;13851;43.434;28.338;2023-02-27T06:51:56;99841.41;;;11.01;100.00
26087;BME280;13851;43.434;28.338;2023-02-27T06:54:21;99835.81;;;11.09;100.00
26087;BME280;13851;43.434;28.338;2023-02-27T06:56:47;99623.16;;;9.80;100.00
26087;BME280;13851;43.434;28.338;2023-02-27T06:59:13;99846.63;;;11.11;100.00
26087;BME280;13851;43.434;28.338;2023-02-27T07:01:38;99758.19;;;10.94;100.00
26087;BME280;13851;43.434;28.338;2023-02-27T07:04:04;99836.94;;;11.53;100.00
26087;BME280;13851;43.434;28.338;2023-02-27T07:06:29;99828.78;;;11.74;100.00
26087;BME280;13851;43.434;28.338;2023-02-27T07:08:55;99832.88;;;11.93;100.00
26087;BME280;13851;43.434;28.338;2023-02-27T07:11:20;99811.66;;;11.57;100.00
26087;BME280;13851;43.434;28.338;2023-02-27T07:13:46;99836.16;;;12.03;100.00
26087;BME280;13851;43.434;28.338;2023-02-27T07:16:11;99833.19;;;12.19;100.00
26087;BME280;13851;43.434;28.338;2023-02-27T07:18:37;99851.88;;;12.45;100.00
26087;BME280;13851;43.434;28.338;2023-02-27T07:21:02;99843.34;;;12.40;100.00
26087;BME280;13851;43.434;28.338;2023-02-27T07:23:28;99854.19;;;12.85;100.00
26087;BME280;13851;43.434;28.338;2023-02-27T07:25:54;99842.34;;;13.12;100.00
26087;BME280;13851;43.434;28.338;2023-02-27T07:28:19;99548.09;;;11.59;100.00
26087;BME280;13851;43.434;28.338;2023-02-27T07:30:45;99814.19;;;13.10;100.00
26087;BME280;13851;43.434;28.338;2023-02-27T07:33:11;99737.66;;;12.36;100.00
26087;BME280;13851;43.434;28.338;2023-02-27T07:35:36;99488.56;;;10.59;100.00
26087;BME280;13851;43.434;28.338;2023-02-27T07:38:02;99764.53;;;11.83;100.00
26087;BME280;13851;43.434;28.338;2023-02-27T07:40:28;99803.41;;;11.87;100.00
26087;BME280;13851;43.434;28.338;2023-02-27T07:42:54;99814.00;;;11.75;100.00
26087;BME280;13851;43.434;28.338;2023-02-27T07:45:19;99772.13;;;11.07;100.00
26087;BME280;13851;43.434;28.338;2023-02-27T07:47:45;99758.50;;;11.43;100.00
26087;BME280;13851;43.434;28.338;2023-02-27T07:50:11;99802.19;;;11.60;100.00
26087;BME280;13851;43.434;28.338;2023-02-27T07:52:42;99773.06;;;11.59;100.00
26087;BME280;13851;43.434;28.338;2023-02-27T07:55:09;99844.78;;;11.85;100.00
26087;BME280;13851;43.434;28.338;2023-02-27T07:57:35;99523.06;;;10.24;100.00
26087;BME280;13851;43.434;28.338;2023-02-27T08:00:04;99539.47;;;10.38;100.00
26087;BME280;13851;43.434;28.338;2023-02-27T08:02:31;99849.72;;;12.26;100.00
26087;BME280;13851;43.434;28.338;2023-02-27T08:04:57;99863.13;;;12.51;100.00
26087;BME280;13851;43.434;28.338;2023-02-27T08:07:23;99872.16;;;12.44;100.00
26087;BME280;13851;43.434;28.338;2023-02-27T08:09:49;99872.19;;;12.30;100.00
26087;BME280;13851;43.434;28.338;2023-02-27T08:12:14;99868.44;;;12.01;100.00
26087;BME280;13851;43.434;28.338;2023-02-27T08:14:40;99794.53;;;11.26;100.00
26087;BME280;13851;43.434;28.338;2023-02-27T08:17:06;99823.97;;;11.47;100.00
26087;BME280;13851;43.434;28.338;2023-02-27T08:19:31;99906.19;;;11.69;100.00
26087;BME280;13851;43.434;28.338;2023-02-27T08:21:57;99896.84;;;11.93;100.00
26087;BME280;13851;43.434;28.338;2023-02-27T08:24:22;99869.84;;;11.53;100.00
26087;BME280;13851;43.434;28.338;2023-02-27T08:26:48;99853.41;;;11.67;100.00
26087;BME280;13851;43.434;28.338;2023-02-27T08:29:13;99878.53;;;11.71;100.00
26087;BME280;13851;43.434;28.338;2023-02-27T08:31:39;99902.50;;;12.21;100.00
26087;BME280;13851;43.434;28.338;2023-02-27T08:34:04;99844.50;;;11.95;100.00
26087;BME280;13851;43.434;28.338;2023-02-27T08:36:30;99902.28;;;12.23;100.00
26087;BME280;13851;43.434;28.338;2023-02-27T08:38:56;99876.31;;;11.89;100.00
26087;BME280;13851;43.434;28.338;2023-02-27T08:41:21;99619.47;;;10.78;100.00
26087;BME280;13851;43.434;28.338;2023-02-27T08:43:47;99895.47;;;12.70;100.00
26087;BME280;13851;43.434;28.338;2023-02-27T08:46:14;99835.84;;;12.49;100.00
26087;BME280;13851;43.434;28.338;2023-02-27T08:48:39;99897.16;;;12.92;100.00
26087;BME280;13851;43.434;28.338;2023-02-27T08:51:07;99856.97;;;12.91;100.00
26087;BME280;13851;43.434;28.338;2023-02-27T08:53:35;99899.56;;;13.45;100.00
26087;BME280;13851;43.434;28.338;2023-02-27T08:56:00;99921.25;;;13.33;100.00
26087;BME280;13851;43.434;28.338;2023-02-27T08:58:26;99881.06;;;13.11;100.00
26087;BME280;13851;43.434;28.338;2023-02-27T09:00:53;99936.59;;;13.21;100.00
26087;BME280;13851;43.434;28.338;2023-02-27T09:03:18;99920.41;;;13.11;100.00
26087;BME280;13851;43.434;28.338;2023-02-27T09:05:44;99904.78;;;12.90;100.00
26087;BME280;13851;43.434;28.338;2023-02-27T09:08:09;99567.06;;;10.81;100.00
26087;BME280;13851;43.434;28.338;2023-02-27T09:10:35;99935.28;;;12.95;100.00
26087;BME280;13851;43.434;28.338;2023-02-27T09:13:01;99936.41;;;13.01;100.00
26087;BME280;13851;43.434;28.338;2023-02-27T09:15:27;99841.25;;;12.42;100.00
26087;BME280;13851;43.434;28.338;2023-02-27T09:17:54;99919.53;;;12.89;100.00
26087;BME280;13851;43.434;28.338;2023-02-27T09:20:22;99737.44;;;11.95;100.00
26087;BME280;13851;43.434;28.338;2023-02-27T09:22:48;99976.00;;;13.07;100.00
26087;BME280;13851;43.434;28.338;2023-02-27T09:25:13;99997.47;;;12.96;100.00
26087;BME280;13851;43.434;28.338;2023-02-27T09:27:39;99996.25;;;12.84;100.00
26087;BME280;13851;43.434;28.338;2023-02-27T09:30:05;99956.56;;;12.72;100.00
26087;BME280;13851;43.434;28.338;2023-02-27T09:32:31;99981.25;;;13.01;100.00
26087;BME280;13851;43.434;28.338;2023-02-27T09:34:56;99982.63;;;12.76;100.00
26087;BME280;13851;43.434;28.338;2023-02-27T09:37:22;99624.28;;;11.06;100.00
26087;BME280;13851;43.434;28.338;2023-02-27T09:39:49;99926.44;;;13.00;100.00
26087;BME280;13851;43.434;28.338;2023-02-27T09:42:18;99966.09;;;13.55;100.00
26087;BME280;13851;43.434;28.338;2023-02-27T09:44:57;99977.69;;;13.72;100.00
26087;BME280;13851;43.434;28.338;2023-02-27T09:47:37;99703.75;;;12.08;100.00
26087;BME280;13851;43.434;28.338;2023-02-27T09:50:16;99653.50;;;11.50;100.00
26087;BME280;13851;43.434;28.338;2023-02-27T09:52:45;99966.13;;;13.12;100.00
26087;BME280;13851;43.434;28.338;2023-02-27T09:55:16;99938.94;;;13.02;100.00
26087;BME280;13851;43.434;28.338;2023-02-27T09:58:04;99984.28;;;13.28;100.00
26087;BME280;13851;43.434;28.338;2023-02-27T10:12:08;99809.31;;;13.68;100.00
26087;BME280;13851;43.434;28.338;2023-02-27T10:14:44;100021.06;;;14.95;100.00
26087;BME280;13851;43.434;28.338;2023-02-27T10:17:33;99977.78;;;15.02;100.00
26087;BME280;13851;43.434;28.338;2023-02-27T10:20:02;99959.03;;;14.78;100.00
26087;BME280;13851;43.434;28.338;2023-02-27T10:22:35;99946.34;;;14.42;100.00
26087;BME280;13851;43.434;28.338;2023-02-27T10:25:06;99736.50;;;13.01;100.00
26087;BME280;13851;43.434;28.338;2023-02-27T10:27:35;99988.34;;;14.44;100.00
26087;BME280;13851;43.434;28.338;2023-02-27T10:30:28;99994.66;;;14.03;100.00
26087;BME280;13851;43.434;28.338;2023-02-27T10:33:03;99984.22;;;13.71;100.00
26087;BME280;13851;43.434;28.338;2023-02-27T10:35:37;100002.06;;;13.75;100.00
26087;BME280;13851;43.434;28.338;2023-02-27T10:38:11;99722.81;;;12.31;100.00
26087;BME280;13851;43.434;28.338;2023-02-27T10:40:39;99987.75;;;13.86;100.00
26087;BME280;13851;43.434;28.338;2023-02-27T10:43:06;99931.78;;;14.14;100.00
26087;BME280;13851;43.434;28.338;2023-02-27T10:45:33;100005.31;;;14.89;100.00
26087;BME280;13851;43.434;28.338;2023-02-27T10:48:00;100000.28;;;15.13;100.00
26087;BME280;13851;43.434;28.338;2023-02-27T10:50:32;99999.22;;;15.14;100.00
26087;BME280;13851;43.434;28.338;2023-02-27T10:53:00;99959.97;;;15.12;100.00
26087;BME280;13851;43.434;28.338;2023-02-27T10:55:29;100017.38;;;15.76;100.00
26087;BME280;13851;43.434;28.338;2023-02-27T10:57:56;100008.47;;;16.14;100.00
26087;BME280;13851;43.434;28.338;2023-02-27T11:03:34;100021.81;;;17.01;100.00
26087;BME280;13851;43.434;28.338;2023-02-27T11:06:23;100027.81;;;17.36;100.00
26087;BME280;13851;43.434;28.338;2023-02-27T11:11:37;100034.31;;;18.12;100.00
26087;BME280;13851;43.434;28.338;2023-02-27T11:14:27;100027.19;;;18.41;100.00
26087;BME280;13851;43.434;28.338;2023-02-27T11:16:56;100033.56;;;18.41;100.00
26087;BME280;13851;43.434;28.338;2023-02-27T11:19:33;100014.84;;;18.37;100.00
26087;BME280;13851;43.434;28.338;2023-02-27T11:22:02;99934.88;;;17.97;100.00
26087;BME280;13851;43.434;28.338;2023-02-27T11:24:28;100018.09;;;18.52;100.00
26087;BME280;13851;43.434;28.338;2023-02-27T11:27:00;99988.19;;;18.17;100.00
26087;BME280;13851;43.434;28.338;2023-02-27T11:29:30;100028.03;;;18.41;100.00
26087;BME280;13851;43.434;28.338;2023-02-27T11:32:09;100059.28;;;18.30;100.00
26087;BME280;13851;43.434;28.338;2023-02-27T11:34:47;100027.44;;;18.14;100.00
26087;BME280;13851;43.434;28.338;2023-02-27T11:39:50;100035.03;;;18.01;100.00
26087;BME280;13851;43.434;28.338;2023-02-27T11:45:39;100048.94;;;17.94;100.00
26087;BME280;13851;43.434;28.338;2023-02-27T11:48:17;99757.94;;;16.26;100.00
26087;BME280;13851;43.434;28.338;2023-02-27T11:51:01;100040.97;;;18.04;100.00
26087;BME280;13851;43.434;28.338;2023-02-27T11:56:29;100052.41;;;17.89;100.00
26087;BME280;13851;43.434;28.338;2023-02-27T11:59:04;100082.03;;;17.89;100.00
26087;BME280;13851;43.434;28.338;2023-02-27T12:02:02;100040.03;;;17.92;100.00
26087;BME280;13851;43.434;28.338;2023-02-27T12:09:46;99992.53;;;18.50;100.00
26087;BME280;13851;43.434;28.338;2023-02-27T12:12:27;100053.50;;;19.12;100.00
26087;BME280;13851;43.434;28.338;2023-02-27T12:15:06;100049.59;;;19.01;100.00
26087;BME280;13851;43.434;28.338;2023-02-27T12:17:46;100048.44;;;18.90;100.00
26087;BME280;13851;43.434;28.338;2023-02-27T12:20:27;99836.91;;;17.41;100.00
26087;BME280;13851;43.434;28.338;2023-02-27T12:22:54;100061.47;;;18.90;100.00
26087;BME280;13851;43.434;28.338;2023-02-27T12:25:40;100047.41;;;19.21;100.00
26087;BME280;13851;43.434;28.338;2023-02-27T12:31:21;100090.56;;;19.96;100.00
26087;BME280;13851;43.434;28.338;2023-02-27T12:33:56;100023.38;;;19.99;100.00
26087;BME280;13851;43.434;28.338;2023-02-27T12:36:24;100052.22;;;20.63;100.00
26087;BME280;13851;43.434;28.338;2023-02-27T12:38:50;100064.63;;;20.96;100.00
26087;BME280;13851;43.434;28.338;2023-02-27T12:41:29;100062.13;;;20.71;99.42
26087;BME280;13851;43.434;28.338;2023-02-27T12:46:41;100052.66;;;20.25;100.00
26087;BME280;13851;43.434;28.338;2023-02-27T12:49:32;100046.41;;;20.53;99.71
26087;BME280;13851;43.434;28.338;2023-02-27T12:55:19;100050.53;;;19.73;100.00
26087;BME280;13851;43.434;28.338;2023-02-27T12:58:17;99983.09;;;19.06;100.00
26087;BME280;13851;43.434;28.338;2023-02-27T13:05:59;100057.03;;;19.49;100.00
26087;BME280;13851;43.434;28.338;2023-02-27T13:08:53;99795.00;;;18.30;100.00
26087;BME280;13851;43.434;28.338;2023-02-27T13:16:58;100069.78;;;19.87;100.00
26087;BME280;13851;43.434;28.338;2023-02-27T13:19:30;100011.16;;;19.58;100.00
26087;BME280;13851;43.434;28.338;2023-02-27T13:24:45;100100.91;;;20.19;100.00
26087;BME280;13851;43.434;28.338;2023-02-27T13:27:19;100099.94;;;20.25;100.00
26087;BME280;13851;43.434;28.338;2023-02-27T13:30:06;100111.34;;;20.23;100.00
26087;BME280;13851;43.434;28.338;2023-02-27T13:35:28;100109.50;;;20.17;100.00
26087;BME280;13851;43.434;28.338;2023-02-27T13:38:00;100112.00;;;19.47;100.00
26087;BME280;13851;43.434;28.338;2023-02-27T13:43:03;100127.53;;;19.18;100.00
26087;BME280;13851;43.434;28.338;2023-02-27T13:45:46;100114.75;;;18.99;100.00
26087;BME280;13851;43.434;28.338;2023-02-27T13:50:59;100046.22;;;17.56;100.00
26087;BME280;13851;43.434;28.338;2023-02-27T13:53:25;100109.53;;;17.90;100.00
26087;BME280;13851;43.434;28.338;2023-02-27T13:56:16;100082.47;;;17.86;100.00
26087;BME280;13851;43.434;28.338;2023-02-27T13:58:41;99876.66;;;16.97;100.00
26087;BME280;13851;43.434;28.338;2023-02-27T14:01:17;100146.88;;;18.69;100.00
26087;BME280;13851;43.434;28.338;2023-02-27T14:03:59;100098.94;;;18.56;100.00
26087;BME280;13851;43.434;28.338;2023-02-27T14:06:29;100129.56;;;18.67;100.00
26087;BME280;13851;43.434;28.338;2023-02-27T14:08:56;100123.31;;;18.97;100.00
26087;BME280;13851;43.434;28.338;2023-02-27T14:11:29;99902.72;;;17.39;100.00
26087;BME280;13851;43.434;28.338;2023-02-27T14:14:04;100155.53;;;18.98;100.00
26087;BME280;13851;43.434;28.338;2023-02-27T14:24:16;100161.16;;;18.16;100.00
26087;BME280;13851;43.434;28.338;2023-02-27T14:26:43;100168.69;;;18.09;100.00
26087;BME280;13851;43.434;28.338;2023-02-27T14:29:20;100142.41;;;17.87;100.00
26087;BME280;13851;43.434;28.338;2023-02-27T14:31:47;100170.47;;;17.97;100.00
26087;BME280;13851;43.434;28.338;2023-02-27T14:34:19;100156.16;;;17.62;100.00
26087;BME280;13851;43.434;28.338;2023-02-27T14:36:58;100189.78;;;17.65;100.00
26087;BME280;13851;43.434;28.338;2023-02-27T14:39:32;100178.44;;;17.35;100.00
26087;BME280;13851;43.434;28.338;2023-02-27T14:45:03;100242.56;;;17.26;100.00
26087;BME280;13851;43.434;28.338;2023-02-27T14:47:34;100196.81;;;17.03;100.00
26087;BME280;13851;43.434;28.338;2023-02-27T14:50:03;100201.13;;;16.86;100.00
26087;BME280;13851;43.434;28.338;2023-02-27T14:52:32;100205.16;;;16.70;100.00
26087;BME280;13851;43.434;28.338;2023-02-27T14:55:33;100221.09;;;16.55;100.00
26087;BME280;13851;43.434;28.338;2023-02-27T15:00:58;100186.19;;;16.07;100.00
26087;BME280;13851;43.434;28.338;2023-02-27T15:03:33;100180.00;;;15.92;100.00
26087;BME280;13851;43.434;28.338;2023-02-27T15:06:01;100159.03;;;15.56;100.00
26087;BME280;13851;43.434;28.338;2023-02-27T15:08:31;100229.50;;;15.87;100.00
26087;BME280;13851;43.434;28.338;2023-02-27T15:10:58;100202.09;;;15.44;100.00